Krabi, Thailand

6:39 PM ICT on December 03, 2016 (GMT +0700)
Ao Nang Weather Station | | Change Station

Elev 177 ft 8.05 °N, 98.84 °E | Updated 1 minute ago

Rain
Rain
75.4 °F
Feels Like 74 °F
N
2.0
Wind Variable Wind from North
Gusts 6.0 mph

Today
High -- | Low -- °F
--% Chance of Precip.
Yesterday
High -- | Low -- °F
Precip. -- in
Pressure 29.80 in
Visibility 6.2 miles
Clouds Scattered Clouds 1800 ft
Mostly Cloudy 10000 ft
Heat Index 74 °F
Dew Point 74 °F
Humidity 94%
Rainfall 0.60 in
Snow Depth Not available.
6:23 AM 6:04 PM
Waxing Crescent, 14% visible
METAR VTSG 031100Z 03007KT 350V080 9999 SCT018 BKN100 24/23 Q1009
Pressure 29.80 in
Visibility 6.2 miles
Clouds Scattered Clouds 1800 ft
Mostly Cloudy 10000 ft
Heat Index 74 °F
Dew Point 74 °F
Humidity 94%
Rainfall 0.60 in
Snow Depth Not available.
6:23 AM 6:04 PM
Waxing Crescent, 14% visible
METAR VTSG 031100Z 03007KT 350V080 9999 SCT018 BKN100 24/23 Q1009

10-Day Weather Forecast

No radar image for this location.
×

Almanac

Astronomy

Dec. 03, 2016 Rise Set
Actual Time
Civil Twilight
Nautical Twilight
Astronomical Twilight
Moon
Length of Visible Light
Length of Day
Tomorrow will be .
, % of the Moon is Illuminated

Today's Extremes

Country Highs Country Lows

Community

WunderPhotos

Upload Photos

1,955,431 photos uploaded!

WunderBlog® & News

Nearby

Air Quality

  Air Quality AQ Index Pollutant
Not available.

Snow Depth

Station Depth Elevation

Earthquake Activity

City Distance Mag. Time & Date
Minimum magnitude displayed is 2.5.

Coastal Water Temperatures

Place Temperature

Stations

Nearby Weather Stations

Station Location Temp. Windchill Dew Point Humidity Wind Precip. Elev Updated Type